Time;durP1;ratioP1;P1;durP2;ratioP2;P2;SDS_P1;SDS_P2;PMS_P1;PMS_P2;Temp;Humidity;BMP_temperature;BMP_pressure;BME280_temperature;BME280_humidity;BME280_pressure;Samples;Min_cycle;Max_cycle;Signal;HPM_P1;HPM_P2
2021/08/14 00:00:17;;;;;;;8.67;7.77;;;21.00;77.70;;;;;;5080166;28;20440;-80
2021/08/14 00:02:46;;;;;;;9.53;8.10;;;21.00;77.90;;;;;;5081145;28;20513;-82
2021/08/14 00:05:13;;;;;;;9.00;8.10;;;21.00;77.70;;;;;;5080699;28;20490;-81
2021/08/14 00:07:40;;;;;;;11.60;7.97;;;20.90;79.00;;;;;;5075233;28;20455;-79
2021/08/14 00:10:08;;;;;;;8.90;7.97;;;20.90;79.70;;;;;;5069342;28;20486;-80
2021/08/14 00:12:37;;;;;;;10.77;7.77;;;20.80;79.70;;;;;;5052562;28;20511;-81
2021/08/14 00:15:05;;;;;;;9.70;8.30;;;20.80;80.80;;;;;;5077077;28;20516;-78
2021/08/14 00:17:32;;;;;;;11.60;8.03;;;20.70;81.20;;;;;;5078054;28;20457;-80
2021/08/14 00:20:01;;;;;;;8.97;8.07;;;20.60;82.00;;;;;;5070863;28;20445;-80
2021/08/14 00:22:28;;;;;;;16.23;8.23;;;20.60;82.60;;;;;;5080216;28;20476;-81
2021/08/14 00:24:55;;;;;;;8.77;7.97;;;20.50;83.40;;;;;;5076843;28;20451;-80
2021/08/14 00:27:21;;;;;;;9.77;8.23;;;20.50;84.10;;;;;;5070152;28;20455;-80
2021/08/14 00:29:48;;;;;;;8.90;7.20;;;20.50;84.00;;;;;;5068234;28;20461;-80
2021/08/14 00:32:15;;;;;;;8.73;7.83;;;20.50;84.80;;;;;;5067729;28;20462;-81
2021/08/14 00:34:42;;;;;;;9.93;7.83;;;20.50;85.00;;;;;;5070404;28;20538;-80
2021/08/14 00:37:11;;;;;;;10.27;7.10;;;20.50;85.80;;;;;;5072101;28;20486;-80
2021/08/14 00:39:38;;;;;;;8.97;8.07;;;20.50;85.80;;;;;;5071864;28;20437;-80
2021/08/14 00:42:05;;;;;;;10.03;9.03;;;20.50;87.00;;;;;;5068514;28;20444;-79
2021/08/14 00:44:33;;;;;;;9.73;8.73;;;20.40;87.50;;;;;;5062382;28;20529;-81
2021/08/14 00:47:03;;;;;;;11.10;8.40;;;20.30;88.00;;;;;;5060835;28;20705;-80
2021/08/14 00:49:30;;;;;;;11.23;8.23;;;20.20;90.10;;;;;;5068047;28;20828;-81
2021/08/14 00:51:57;;;;;;;8.73;8.03;;;20.20;90.90;;;;;;5076529;28;20411;-81
2021/08/14 00:54:25;;;;;;;10.13;9.10;;;20.10;91.70;;;;;;5066385;28;20461;-81
2021/08/14 00:56:52;;;;;;;9.60;8.63;;;20.10;92.30;;;;;;5064726;28;20554;-81
2021/08/14 00:59:19;;;;;;;11.77;8.73;;;20.00;92.60;;;;;;5067404;28;20455;-81
2021/08/14 01:01:47;;;;;;;10.30;8.07;;;20.00;92.60;;;;;;5066832;28;20437;-81
2021/08/14 01:04:14;;;;;;;12.70;9.37;;;20.00;92.60;;;;;;5065989;28;20846;-80
2021/08/14 01:06:41;;;;;;;13.33;9.13;;;19.90;93.50;;;;;;5063729;28;20463;-78
2021/08/14 01:09:09;;;;;;;10.47;9.47;;;19.90;93.60;;;;;;5059258;28;20596;-78
2021/08/14 01:11:38;;;;;;;10.00;9.10;;;19.80;93.80;;;;;;5059613;28;20463;-78
2021/08/14 01:14:06;;;;;;;9.80;8.83;;;19.80;93.70;;;;;;5057916;28;20461;-79
2021/08/14 01:16:33;;;;;;;12.67;9.80;;;19.70;93.80;;;;;;5058837;28;21014;-79
2021/08/14 01:19:00;;;;;;;12.20;8.80;;;19.60;93.70;;;;;;5064793;28;20457;-80
2021/08/14 01:21:27;;;;;;;10.13;8.97;;;19.60;94.20;;;;;;5065543;28;20467;-80
2021/08/14 01:23:56;;;;;;;10.30;9.37;;;19.60;94.10;;;;;;5059675;28;20542;-80
2021/08/14 01:26:24;;;;;;;12.17;9.10;;;19.50;94.40;;;;;;5070705;28;20473;-80
2021/08/14 01:28:53;;;;;;;10.67;9.20;;;19.40;95.10;;;;;;5070064;28;20567;-82
2021/08/14 01:31:21;;;;;;;10.60;9.47;;;19.40;95.20;;;;;;5066949;28;20504;-80
2021/08/14 01:33:48;;;;;;;9.80;8.80;;;19.40;95.20;;;;;;5054617;28;20487;-80
2021/08/14 01:36:17;;;;;;;10.00;9.00;;;19.40;95.20;;;;;;5053211;28;20486;-80
2021/08/14 01:38:46;;;;;;;10.10;8.83;;;19.30;95.10;;;;;;5065121;28;20465;-80
2021/08/14 01:41:13;;;;;;;8.90;8.00;;;19.30;95.10;;;;;;5076106;28;20434;-80
2021/08/14 01:44:02;;;;;;;9.30;8.43;;;19.30;95.80;;;;;;5076214;28;20452;-80
2021/08/14 01:46:31;;;;;;;9.30;8.40;;;19.30;95.70;;;;;;5071232;28;20458;-81
2021/08/14 01:48:58;;;;;;;8.50;7.33;;;19.20;95.50;;;;;;5069347;28;20457;-80
2021/08/14 01:51:25;;;;;;;9.10;8.20;;;19.20;95.30;;;;;;5070864;28;20455;-80
2021/08/14 01:53:55;;;;;;;9.40;8.60;;;19.20;95.60;;;;;;5058098;28;20492;-80
2021/08/14 01:56:22;;;;;;;10.50;8.90;;;19.20;95.60;;;;;;5058212;28;20423;-81
2021/08/14 01:58:49;;;;;;;9.20;8.40;;;19.20;95.90;;;;;;5071602;28;20486;-80
2021/08/14 02:01:18;;;;;;;9.83;8.83;;;19.20;95.60;;;;;;5066255;28;20455;-80
2021/08/14 02:03:47;;;;;;;10.37;8.53;;;19.20;95.70;;;;;;5074655;28;20513;-79
2021/08/14 02:06:14;;;;;;;10.03;8.17;;;19.20;96.10;;;;;;5077266;28;20430;-81
2021/08/14 02:08:41;;;;;;;9.50;8.60;;;19.20;95.80;;;;;;5077150;28;20726;-80
2021/08/14 02:11:12;;;;;;;9.00;8.20;;;19.20;95.10;;;;;;5076148;28;20446;-79
2021/08/14 02:13:39;;;;;;;11.00;8.70;;;19.20;95.10;;;;;;5066714;28;20504;-80
2021/08/14 02:16:06;;;;;;;8.37;7.57;;;19.20;95.10;;;;;;5064318;28;20461;-79
2021/08/14 02:18:34;;;;;;;9.20;8.00;;;19.20;94.70;;;;;;5067773;28;20959;-79
2021/08/14 02:21:01;;;;;;;9.80;8.87;;;19.20;94.00;;;;;;5075928;28;20434;-81
2021/08/14 02:23:29;;;;;;;9.40;8.40;;;19.20;93.70;;;;;;5077383;28;20446;-79
2021/08/14 02:25:56;;;;;;;9.67;8.77;;;19.10;93.80;;;;;;5076507;28;20455;-78
2021/08/14 02:28:23;;;;;;;9.57;8.33;;;19.00;94.70;;;;;;5071518;28;20457;-79
2021/08/14 02:30:50;;;;;;;9.40;8.50;;;19.00;95.00;;;;;;5058609;28;20545;-79
2021/08/14 02:33:17;;;;;;;9.30;8.50;;;19.00;95.10;;;;;;5057558;28;20517;-78
2021/08/14 02:35:45;;;;;;;14.27;8.30;;;19.00;95.30;;;;;;5108757;22;20851;-78
2021/08/14 02:38:12;;;;;;;11.17;8.70;;;19.00;95.50;;;;;;5094809;28;20482;-78
2021/08/14 02:40:39;;;;;;;8.80;8.10;;;19.00;95.70;;;;;;5094801;28;20859;-78
2021/08/14 02:43:06;;;;;;;9.23;8.03;;;19.00;96.00;;;;;;5093874;28;20863;-77
2021/08/14 02:45:34;;;;;;;9.50;8.57;;;19.00;95.90;;;;;;5094065;28;20469;-78
2021/08/14 02:48:01;;;;;;;8.97;8.07;;;19.00;95.60;;;;;;5093673;28;20480;-78
2021/08/14 02:50:29;;;;;;;8.97;8.07;;;19.10;95.60;;;;;;5092782;28;20431;-77
2021/08/14 02:52:57;;;;;;;10.43;8.50;;;19.10;95.10;;;;;;5093150;28;20462;-77
2021/08/14 02:55:25;;;;;;;8.77;7.83;;;19.00;95.00;;;;;;5093175;28;20449;-77
2021/08/14 02:57:52;;;;;;;9.43;8.40;;;19.00;95.00;;;;;;5093069;28;20857;-77
2021/08/14 03:00:19;;;;;;;15.33;9.43;;;18.90;95.30;;;;;;5092695;28;20538;-78
2021/08/14 03:02:45;;;;;;;9.57;8.70;;;18.90;95.80;;;;;;5091911;28;20423;-78
2021/08/14 03:05:13;;;;;;;11.13;8.97;;;18.90;96.00;;;;;;5092773;28;21065;-78
2021/08/14 03:07:40;;;;;;;11.47;8.53;;;18.80;96.80;;;;;;5096166;28;20466;-79
2021/08/14 03:10:09;;;;;;;9.90;9.00;;;18.80;96.90;;;;;;5095182;28;20428;-78
2021/08/14 03:12:36;;;;;;;9.90;9.00;;;18.80;96.90;;;;;;5094377;28;20535;-78
2021/08/14 03:15:03;;;;;;;10.27;9.27;;;18.70;97.60;;;;;;5096261;28;20507;-78
2021/08/14 03:17:31;;;;;;;10.03;9.03;;;18.70;97.90;;;;;;5096180;28;20483;-79
2021/08/14 03:19:58;;;;;;;9.70;8.80;;;18.70;98.00;;;;;;5098038;28;20505;-79
2021/08/14 03:22:25;;;;;;;9.67;8.67;;;18.60;98.20;;;;;;5103183;28;20484;-79
2021/08/14 03:24:52;;;;;;;12.47;8.60;;;18.60;98.40;;;;;;5107362;28;20454;-78
2021/08/14 03:27:20;;;;;;;9.60;8.53;;;18.50;98.50;;;;;;5105345;28;20441;-78
2021/08/14 03:29:47;;;;;;;9.40;8.57;;;18.50;98.90;;;;;;5107977;28;20426;-78
2021/08/14 03:32:14;;;;;;;10.90;8.43;;;18.50;98.90;;;;;;5109678;28;20452;-78
2021/08/14 03:34:41;;;;;;;10.33;9.23;;;18.50;98.60;;;;;;5108009;28;20541;-78
2021/08/14 03:37:08;;;;;;;11.87;9.43;;;18.40;98.80;;;;;;5100303;28;20880;-78
2021/08/14 03:39:35;;;;;;;9.50;8.60;;;18.40;99.00;;;;;;5098140;28;20477;-79
2021/08/14 03:42:02;;;;;;;8.97;8.07;;;18.40;99.30;;;;;;5109067;28;20430;-78
2021/08/14 03:44:30;;;;;;;10.60;9.53;;;18.30;99.60;;;;;;5116453;28;20670;-78
2021/08/14 03:46:57;;;;;;;11.23;10.00;;;18.30;99.50;;;;;;5117692;28;20672;-78
2021/08/14 03:49:25;;;;;;;10.83;9.27;;;18.20;99.90;;;;;;5117539;28;20406;-78
2021/08/14 03:51:52;;;;;;;11.13;9.90;;;18.10;99.90;;;;;;5117656;28;20435;-78
2021/08/14 03:54:19;;;;;;;10.60;9.13;;;18.10;99.90;;;;;;5116510;28;20498;-78
2021/08/14 03:56:46;;;;;;;11.73;8.93;;;18.00;99.90;;;;;;5109984;28;20447;-78
2021/08/14 03:59:13;;;;;;;10.70;9.50;;;18.00;99.90;;;;;;5101166;28;20418;-78
2021/08/14 04:01:41;;;;;;;9.20;8.37;;;18.00;99.90;;;;;;5106762;28;20452;-78
2021/08/14 04:04:08;;;;;;;16.33;9.53;;;18.00;99.90;;;;;;5113211;28;20798;-77
2021/08/14 04:06:35;;;;;;;9.20;8.30;;;18.00;99.90;;;;;;5117463;28;20408;-78
2021/08/14 04:09:01;;;;;;;11.37;9.27;;;17.90;99.90;;;;;;5116813;28;20478;-77
2021/08/14 04:11:28;;;;;;;11.40;8.87;;;17.90;99.90;;;;;;5111559;28;20429;-78
2021/08/14 04:13:55;;;;;;;9.83;8.90;;;17.90;99.90;;;;;;5106319;28;20515;-77
2021/08/14 04:16:22;;;;;;;10.03;9.00;;;18.00;99.90;;;;;;5114948;28;20448;-78
2021/08/14 04:18:50;;;;;;;9.83;8.90;;;17.90;99.90;;;;;;5116186;28;20465;-78
2021/08/14 04:21:17;;;;;;;10.90;9.23;;;18.00;99.90;;;;;;5108196;28;20472;-78
2021/08/14 04:23:44;;;;;;;10.30;9.03;;;18.00;99.90;;;;;;5107058;28;20447;-78
2021/08/14 04:26:11;;;;;;;10.07;8.97;;;18.00;99.90;;;;;;5097860;28;20430;-78
2021/08/14 04:28:37;;;;;;;10.70;9.60;;;18.10;99.90;;;;;;5096093;28;20424;-77
2021/08/14 04:31:04;;;;;;;11.10;8.73;;;18.10;99.90;;;;;;5104143;28;20454;-78
2021/08/14 04:33:31;;;;;;;9.53;8.53;;;18.10;99.90;;;;;;5115199;28;20450;-78
2021/08/14 04:35:59;;;;;;;12.30;10.50;;;18.10;99.80;;;;;;5111524;28;20450;-77
2021/08/14 04:38:26;;;;;;;12.30;9.00;;;18.10;99.50;;;;;;5104867;28;20475;-79
2021/08/14 04:40:53;;;;;;;10.83;9.23;;;18.10;99.00;;;;;;5104096;28;20860;-78
2021/08/14 04:43:20;;;;;;;8.90;8.10;;;18.10;99.00;;;;;;5102677;28;20490;-77
2021/08/14 04:45:47;;;;;;;10.77;9.37;;;18.20;98.80;;;;;;5100803;28;20453;-78
2021/08/14 04:48:14;;;;;;;9.30;8.40;;;18.20;98.90;;;;;;5098820;28;20490;-78
2021/08/14 04:50:41;;;;;;;10.40;8.60;;;18.40;99.80;;;;;;5099610;28;20956;-77
2021/08/14 04:53:10;;;;;;;10.13;8.40;;;18.70;96.70;;;;;;5105294;28;20540;-77
2021/08/14 04:55:37;;;;;;;10.23;7.80;;;19.00;93.60;;;;;;5120524;28;20465;-78
2021/08/14 04:58:04;;;;;;;8.73;7.87;;;19.40;91.40;;;;;;5108174;28;20771;-78
2021/08/14 05:00:31;;;;;;;7.30;6.60;;;19.70;89.80;;;;;;5101855;28;20507;-78
2021/08/14 05:02:57;;;;;;;10.47;7.57;;;20.20;85.60;;;;;;5102673;28;20463;-79
2021/08/14 05:05:24;;;;;;;8.27;7.47;;;20.50;79.30;;;;;;5104868;28;20498;-78
2021/08/14 05:07:51;;;;;;;8.57;7.77;;;20.90;77.30;;;;;;5096437;28;20460;-77
2021/08/14 05:10:19;;;;;;;11.07;7.83;;;21.20;72.40;;;;;;5095905;28;20458;-77
2021/08/14 05:12:46;;;;;;;7.83;7.13;;;21.40;70.20;;;;;;5098345;28;20453;-77
2021/08/14 05:15:13;;;;;;;8.90;7.47;;;21.60;69.30;;;;;;5095323;28;20521;-77
2021/08/14 05:17:40;;;;;;;7.80;7.00;;;21.20;69.40;;;;;;5097837;28;20933;-77
2021/08/14 05:20:08;;;;;;;8.10;7.27;;;21.40;69.60;;;;;;5096799;28;20491;-77
2021/08/14 05:22:35;;;;;;;8.43;7.37;;;21.90;65.40;;;;;;5094852;28;20490;-77
2021/08/14 05:25:01;;;;;;;7.73;6.67;;;21.70;67.30;;;;;;5094649;28;20512;-77
2021/08/14 05:27:30;;;;;;;8.37;6.87;;;22.30;65.30;;;;;;5093665;28;20525;-77
2021/08/14 05:29:57;;;;;;;8.90;6.80;;;22.40;62.90;;;;;;5093875;28;20913;-77
2021/08/14 05:32:24;;;;;;;7.23;6.40;;;23.10;60.20;;;;;;5094681;28;20517;-77
2021/08/14 05:34:51;;;;;;;7.80;7.03;;;22.50;60.90;;;;;;5093737;28;20462;-78
2021/08/14 05:37:18;;;;;;;8.33;7.07;;;22.10;64.10;;;;;;5096289;28;20940;-78
2021/08/14 05:39:45;;;;;;;7.10;6.50;;;22.60;60.90;;;;;;5097475;28;20475;-79
2021/08/14 05:42:12;;;;;;;7.13;6.53;;;22.60;60.90;;;;;;5112335;28;20452;-78
2021/08/14 05:44:40;;;;;;;7.20;6.50;;;22.90;61.20;;;;;;5117585;28;20444;-78
2021/08/14 05:47:07;;;;;;;9.10;6.43;;;23.80;57.20;;;;;;5110690;28;20849;-77
2021/08/14 05:49:34;;;;;;;7.80;6.90;;;24.40;54.50;;;;;;5101696;28;20432;-78
2021/08/14 05:52:01;;;;;;;9.33;6.17;;;23.90;53.10;;;;;;5097823;28;21016;-79
2021/08/14 05:54:28;;;;;;;7.27;6.60;;;22.90;58.30;;;;;;5097107;28;20864;-78
2021/08/14 05:56:55;;;;;;;7.77;6.13;;;22.70;59.80;;;;;;5096072;28;20453;-78
2021/08/14 05:59:22;;;;;;;6.73;6.03;;;23.30;57.90;;;;;;5097322;28;20489;-78
2021/08/14 06:01:50;;;;;;;10.00;6.63;;;24.00;54.50;;;;;;5098934;28;20461;-79
2021/08/14 06:04:17;;;;;;;7.37;6.30;;;24.70;52.00;;;;;;5095137;28;20476;-78
2021/08/14 06:06:44;;;;;;;6.93;6.33;;;24.40;53.00;;;;;;5099399;28;20492;-78
2021/08/14 06:09:11;;;;;;;6.80;6.10;;;23.60;55.10;;;;;;5116540;28;20413;-77
2021/08/14 06:11:39;;;;;;;7.03;6.33;;;23.40;55.40;;;;;;5094088;28;20431;-77
2021/08/14 06:14:05;;;;;;;7.13;6.03;;;22.90;59.10;;;;;;5093485;28;20984;-78
2021/08/14 06:16:33;;;;;;;7.10;6.23;;;23.40;57.00;;;;;;5093117;28;21016;-77
2021/08/14 06:19:01;;;;;;;8.63;6.00;;;23.70;56.50;;;;;;5093021;28;20890;-79
2021/08/14 06:21:28;;;;;;;6.47;5.87;;;24.50;53.10;;;;;;5105809;28;20475;-79
2021/08/14 06:23:54;;;;;;;6.60;5.60;;;24.80;51.70;;;;;;5116702;28;20438;-78
2021/08/14 06:26:21;;;;;;;12.50;7.70;;;24.10;53.90;;;;;;5118073;28;20409;-78
2021/08/14 06:28:48;;;;;;;6.77;5.87;;;24.00;54.10;;;;;;5117876;28;20466;-78
2021/08/14 06:31:16;;;;;;;6.87;6.20;;;23.80;54.90;;;;;;5118275;28;20424;-79
2021/08/14 06:33:43;;;;;;;7.43;6.73;;;23.70;55.30;;;;;;5115977;28;20475;-77
2021/08/14 06:36:11;;;;;;;8.13;6.47;;;23.20;57.70;;;;;;5114621;28;20428;-77
2021/08/14 06:38:38;;;;;;;7.17;6.47;;;23.40;58.60;;;;;;5111948;28;20448;-78
2021/08/14 06:41:05;;;;;;;7.13;6.47;;;23.60;57.70;;;;;;5097017;28;20475;-79
2021/08/14 06:43:32;;;;;;;7.87;6.57;;;23.70;56.80;;;;;;5093355;28;20878;-77
2021/08/14 06:45:59;;;;;;;8.20;7.40;;;23.20;57.90;;;;;;5094117;28;21011;-78
2021/08/14 06:48:26;;;;;;;9.20;7.27;;;22.80;60.10;;;;;;5093504;28;20465;-78
2021/08/14 06:50:53;;;;;;;10.03;7.70;;;22.50;60.90;;;;;;5093337;28;20447;-76
2021/08/14 06:53:21;;;;;;;8.30;7.47;;;22.40;62.40;;;;;;5094375;28;20447;-76
2021/08/14 06:55:48;;;;;;;7.40;6.70;;;22.60;60.90;;;;;;5093854;28;20475;-77
2021/08/14 06:58:15;;;;;;;7.50;6.80;;;22.70;61.00;;;;;;5092877;28;20537;-77
2021/08/14 07:00:42;;;;;;;7.10;6.43;;;22.90;59.40;;;;;;5109682;28;20542;-76
2021/08/14 07:03:09;;;;;;;6.53;5.90;;;22.90;59.60;;;;;;5103929;28;20512;-77
2021/08/14 07:05:39;;;;;;;7.63;6.63;;;23.00;59.00;;;;;;5093513;28;20502;-76
2021/08/14 07:08:06;;;;;;;7.33;6.60;;;23.00;59.30;;;;;;5093726;28;20426;-77
2021/08/14 07:10:34;;;;;;;7.67;6.57;;;23.00;59.30;;;;;;5093220;28;20550;-76
2021/08/14 07:13:02;;;;;;;7.30;6.40;;;22.90;58.00;;;;;;5093344;28;20478;-77
2021/08/14 07:15:29;;;;;;;8.20;7.40;;;22.90;59.10;;;;;;5094031;28;20541;-77
2021/08/14 07:17:56;;;;;;;7.93;6.47;;;23.10;59.40;;;;;;5093398;28;20513;-78
2021/08/14 07:20:24;;;;;;;8.63;7.10;;;23.30;57.90;;;;;;5094832;28;20870;-79
2021/08/14 07:22:51;;;;;;;7.03;6.43;;;23.40;57.90;;;;;;5090808;28;20448;-78
2021/08/14 07:25:18;;;;;;;8.03;6.70;;;23.60;57.50;;;;;;5094570;28;20561;-79
2021/08/14 07:27:46;;;;;;;7.93;7.00;;;23.70;56.70;;;;;;5096793;28;20470;-79
2021/08/14 07:30:14;;;;;;;7.60;6.90;;;23.80;54.50;;;;;;5093583;28;20454;-78
2021/08/14 07:32:41;;;;;;;9.13;6.90;;;23.90;53.60;;;;;;5095376;28;20424;-78
2021/08/14 07:35:09;;;;;;;7.50;6.73;;;23.80;54.90;;;;;;5092825;28;20496;-77
2021/08/14 07:37:36;;;;;;;7.27;6.57;;;23.80;54.10;;;;;;5073295;28;20523;-79
2021/08/14 07:40:03;;;;;;;7.10;6.40;;;24.00;54.00;;;;;;5083775;28;20520;-78
2021/08/14 07:42:30;;;;;;;6.80;6.20;;;24.20;53.10;;;;;;5085961;28;20509;-80
2021/08/14 07:44:58;;;;;;;7.47;6.77;;;24.30;52.90;;;;;;5085511;28;20906;-78
2021/08/14 07:47:25;;;;;;;7.07;5.70;;;24.50;51.10;;;;;;5093200;28;20468;-79
2021/08/14 07:49:52;;;;;;;8.00;6.63;;;24.20;52.80;;;;;;5101077;28;20463;-77
2021/08/14 07:52:19;;;;;;;7.17;6.57;;;24.10;52.70;;;;;;5107690;28;20424;-75
2021/08/14 07:54:45;;;;;;;8.27;6.43;;;24.40;51.00;;;;;;5120913;28;20455;-76
2021/08/14 07:57:13;;;;;;;6.97;6.37;;;24.50;50.10;;;;;;5121607;28;20442;-75
2021/08/14 07:59:40;;;;;;;7.00;5.97;;;24.80;50.00;;;;;;5117891;28;20433;-78
2021/08/14 08:02:08;;;;;;;8.03;6.07;;;25.00;48.50;;;;;;5103704;28;20474;-79
2021/08/14 08:04:36;;;;;;;12.13;6.70;;;25.10;47.50;;;;;;5104024;28;20527;-77
2021/08/14 08:07:03;;;;;;;12.67;6.70;;;25.10;48.70;;;;;;5110220;28;20481;-77
2021/08/14 08:09:30;;;;;;;11.70;6.57;;;25.30;48.70;;;;;;5103180;28;20521;-78
2021/08/14 08:11:57;;;;;;;6.93;6.30;;;25.40;47.40;;;;;;5102727;28;20778;-77
2021/08/14 08:14:24;;;;;;;7.20;6.50;;;25.50;47.10;;;;;;5102580;28;20479;-80
2021/08/14 08:16:53;;;;;;;9.63;6.87;;;25.60;47.50;;;;;;5102721;28;20849;-79
2021/08/14 08:19:21;;;;;;;7.03;6.43;;;25.60;47.30;;;;;;5104312;28;20433;-79
2021/08/14 08:21:48;;;;;;;10.03;6.10;;;25.60;47.30;;;;;;5102787;28;20454;-78
2021/08/14 08:24:15;;;;;;;7.30;6.60;;;25.70;46.80;;;;;;5102641;28;20565;-79
2021/08/14 08:26:42;;;;;;;6.93;6.10;;;25.70;46.70;;;;;;5103986;28;20435;-79
2021/08/14 08:29:10;;;;;;;9.87;6.53;;;25.90;46.10;;;;;;5105001;28;20461;-79
2021/08/14 08:31:37;;;;;;;6.90;6.30;;;25.90;45.70;;;;;;5107539;28;20424;-79
2021/08/14 08:34:04;;;;;;;6.80;6.20;;;25.80;46.20;;;;;;5103451;28;21008;-79
2021/08/14 08:36:33;;;;;;;7.20;6.20;;;25.90;45.10;;;;;;5104176;28;20433;-79
2021/08/14 08:39:00;;;;;;;7.90;6.47;;;25.80;44.70;;;;;;5108943;28;20436;-78
2021/08/14 08:41:27;;;;;;;7.27;6.47;;;26.00;44.80;;;;;;5104023;28;20450;-79
2021/08/14 08:43:54;;;;;;;6.73;6.10;;;26.30;44.40;;;;;;5103388;28;20429;-78
2021/08/14 08:46:20;;;;;;;7.40;5.50;;;26.50;43.90;;;;;;5102996;28;20447;-78
2021/08/14 08:48:51;;;;;;;8.40;6.50;;;26.70;43.10;;;;;;5115386;28;20431;-77
2021/08/14 08:51:24;;;;;;;7.77;6.40;;;27.00;41.30;;;;;;5110302;28;20478;-79
2021/08/14 08:53:53;;;;;;;9.07;5.83;;;26.80;41.90;;;;;;5105428;28;20470;-78
2021/08/14 08:56:19;;;;;;;7.33;5.30;;;26.70;42.90;;;;;;5108556;28;20486;-79
2021/08/14 08:58:46;;;;;;;6.83;5.90;;;26.70;41.60;;;;;;5111175;28;20474;-77
2021/08/14 09:01:13;;;;;;;6.80;5.80;;;26.50;40.40;;;;;;5112908;28;20469;-79
2021/08/14 09:03:40;;;;;;;6.53;5.93;;;26.70;40.30;;;;;;5112353;28;20766;-79
2021/08/14 09:06:07;;;;;;;9.20;5.80;;;26.60;41.00;;;;;;5104004;28;20414;-77
2021/08/14 09:08:34;;;;;;;6.33;5.80;;;26.80;39.60;;;;;;5114277;28;20457;-77
2021/08/14 09:11:11;;;;;;;6.47;5.87;;;27.20;38.70;;;;;;5110352;28;20490;-78
2021/08/14 09:13:40;;;;;;;5.90;5.30;;;27.40;38.40;;;;;;5111288;28;20518;-78
2021/08/14 09:16:21;;;;;;;5.73;5.23;;;27.60;37.60;;;;;;5110739;28;20472;-79
2021/08/14 09:18:55;;;;;;;7.20;5.40;;;27.90;36.90;;;;;;5116739;28;20460;-78
2021/08/14 09:21:32;;;;;;;5.83;5.33;;;28.20;36.80;;;;;;5115761;28;20421;-78
2021/08/14 09:24:04;;;;;;;6.47;5.87;;;28.10;36.40;;;;;;5112315;28;20472;-78
2021/08/14 09:26:33;;;;;;;5.67;5.17;;;28.20;35.40;;;;;;5110210;28;20436;-77
2021/08/14 09:29:04;;;;;;;15.57;6.30;;;28.20;35.40;;;;;;5103764;28;20547;-78
2021/08/14 09:31:46;;;;;;;13.47;6.07;;;28.20;35.40;;;;;;5099650;28;20491;-77
2021/08/14 09:34:17;;;;;;;13.40;5.97;;;28.50;35.30;;;;;;5110415;28;20449;-77
2021/08/14 09:36:44;;;;;;;6.10;5.50;;;28.70;35.70;;;;;;5110560;28;20490;-78
2021/08/14 09:39:11;;;;;;;10.57;6.10;;;28.70;35.00;;;;;;5101520;28;20526;-77
2021/08/14 09:41:40;;;;;;;13.53;5.80;;;28.70;34.30;;;;;;5098135;28;20454;-78
2021/08/14 09:44:16;;;;;;;5.80;5.27;;;28.60;34.30;;;;;;5099328;28;20434;-78
2021/08/14 09:46:43;;;;;;;6.10;5.50;;;28.60;34.80;;;;;;5099664;28;20877;-77
2021/08/14 09:49:10;;;;;;;6.43;5.93;;;28.70;34.20;;;;;;5100138;28;20426;-77
2021/08/14 09:51:38;;;;;;;7.30;5.67;;;28.50;34.60;;;;;;5098543;28;20491;-79
2021/08/14 09:54:05;;;;;;;7.73;6.30;;;28.80;33.60;;;;;;5100904;28;20482;-77
2021/08/14 09:56:34;;;;;;;6.67;6.00;;;28.80;33.60;;;;;;5101578;28;20457;-78
2021/08/14 09:59:04;;;;;;;6.53;5.87;;;29.00;33.40;;;;;;5097145;28;20524;-78
2021/08/14 10:01:32;;;;;;;10.30;6.13;;;29.00;34.30;;;;;;5097717;28;20525;-78
2021/08/14 10:04:00;;;;;;;6.60;5.90;;;29.10;32.40;;;;;;5099182;28;20507;-77
2021/08/14 10:06:28;;;;;;;6.03;5.53;;;29.30;32.50;;;;;;5110656;28;20435;-78
2021/08/14 10:08:55;;;;;;;7.03;6.10;;;29.50;33.00;;;;;;5118176;28;20509;-76
2021/08/14 10:11:23;;;;;;;9.87;6.50;;;29.70;32.30;;;;;;5114420;28;20882;-79
2021/08/14 10:13:51;;;;;;;7.70;5.90;;;29.50;31.40;;;;;;5101200;28;20878;-77
2021/08/14 10:16:19;;;;;;;7.13;5.70;;;29.20;32.60;;;;;;5099249;28;20475;-79
2021/08/14 10:18:47;;;;;;;6.30;5.67;;;29.40;31.40;;;;;;5102404;28;20471;-79
2021/08/14 10:21:16;;;;;;;6.17;5.57;;;29.60;30.40;;;;;;5108775;28;20455;-77
2021/08/14 10:23:45;;;;;;;6.43;5.93;;;29.30;32.70;;;;;;5102374;28;20471;-78
2021/08/14 10:26:17;;;;;;;5.83;5.33;;;29.00;34.10;;;;;;5103007;28;21001;-78
2021/08/14 10:28:49;;;;;;;6.33;5.73;;;29.30;33.10;;;;;;5104313;28;20464;-77
2021/08/14 10:31:46;;;;;;;7.80;5.57;;;29.30;32.90;;;;;;5105679;28;20961;-78
2021/08/14 10:34:33;;;;;;;7.37;6.20;;;29.20;32.80;;;;;;5098270;28;20483;-78
2021/08/14 10:37:00;;;;;;;7.60;5.30;;;29.60;32.20;;;;;;5098975;28;20541;-79
2021/08/14 10:39:30;;;;;;;6.87;6.27;;;29.50;32.50;;;;;;5106827;28;20515;-78
2021/08/14 10:41:59;;;;;;;6.70;6.07;;;29.50;32.20;;;;;;5100765;28;20421;-78
2021/08/14 10:44:46;;;;;;;6.97;6.27;;;29.60;32.50;;;;;;5106439;28;20464;-76
2021/08/14 10:47:45;;;;;;;10.30;6.60;;;29.90;31.30;;;;;;5113434;28;20426;-78
2021/08/14 10:50:50;;;;;;;7.17;6.43;;;30.20;30.70;;;;;;5101113;28;20430;-78
2021/08/14 10:53:22;;;;;;;7.77;6.13;;;30.20;29.60;;;;;;5101064;28;20443;-78
2021/08/14 10:55:50;;;;;;;6.63;5.83;;;30.60;29.60;;;;;;5101962;28;20489;-77
2021/08/14 10:58:23;;;;;;;6.70;6.00;;;30.80;29.10;;;;;;5101292;28;20462;-78
2021/08/14 11:00:51;;;;;;;7.93;6.53;;;30.80;29.40;;;;;;5100593;28;20510;-80
2021/08/14 11:03:30;;;;;;;9.03;7.43;;;31.10;28.90;;;;;;5100239;28;20437;-79
2021/08/14 11:06:25;;;;;;;11.50;6.23;;;31.20;29.00;;;;;;5102739;28;20982;-77
2021/08/14 11:09:32;;;;;;;6.23;5.73;;;31.30;28.90;;;;;;5103124;28;20442;-77
2021/08/14 11:12:00;;;;;;;7.07;6.40;;;31.30;28.60;;;;;;5102245;28;20512;-79
2021/08/14 11:14:42;;;;;;;8.17;6.50;;;31.10;28.70;;;;;;5099419;28;20442;-79
2021/08/14 11:17:09;;;;;;;7.40;6.17;;;30.80;29.30;;;;;;5101529;28;20481;-78
2021/08/14 11:19:59;;;;;;;7.60;7.00;;;30.70;29.70;;;;;;5102412;28;20491;-78
2021/08/14 11:22:29;;;;;;;8.73;7.37;;;30.70;30.00;;;;;;5096445;28;20959;-79
2021/08/14 11:24:57;;;;;;;7.83;7.03;;;30.60;30.10;;;;;;5101953;28;20441;-77
2021/08/14 11:27:26;;;;;;;7.70;6.97;;;30.50;30.00;;;;;;5101169;28;20499;-78
2021/08/14 11:29:56;;;;;;;8.27;7.30;;;30.50;30.20;;;;;;5101386;28;20435;-78
2021/08/14 11:32:23;;;;;;;7.20;6.50;;;30.60;30.00;;;;;;5101128;28;20432;-78
2021/08/14 11:34:51;;;;;;;8.07;6.63;;;30.80;29.70;;;;;;5101191;28;20527;-78
2021/08/14 11:37:20;;;;;;;10.10;7.03;;;31.10;29.40;;;;;;5100894;28;20490;-79
2021/08/14 11:39:47;;;;;;;7.90;6.60;;;31.10;29.30;;;;;;5099731;28;20447;-78
2021/08/14 11:42:14;;;;;;;8.33;6.90;;;31.00;28.80;;;;;;5101855;28;20534;-78
2021/08/14 11:44:42;;;;;;;8.80;6.70;;;31.10;28.70;;;;;;5100157;28;20505;-78
2021/08/14 11:47:11;;;;;;;7.80;7.00;;;31.20;28.90;;;;;;5100700;28;20482;-77
2021/08/14 11:49:52;;;;;;;7.30;6.60;;;31.20;28.70;;;;;;5094510;28;20433;-77
2021/08/14 11:52:23;;;;;;;7.93;6.80;;;31.20;28.30;;;;;;5100711;28;20466;-79
2021/08/14 11:54:59;;;;;;;10.17;6.47;;;31.00;29.00;;;;;;5100088;28;20456;-78
2021/08/14 11:57:30;;;;;;;17.80;7.13;;;31.00;29.00;;;;;;5097962;28;20478;-77
2021/08/14 11:59:59;;;;;;;7.60;6.90;;;30.80;29.60;;;;;;5099130;28;20485;-78
2021/08/14 12:02:27;;;;;;;8.77;7.90;;;30.60;29.30;;;;;;5104083;28;20482;-78
2021/08/14 12:04:54;;;;;;;9.77;6.83;;;30.50;29.70;;;;;;5111393;28;20527;-76
2021/08/14 12:07:23;;;;;;;8.90;7.03;;;30.40;29.70;;;;;;5112493;28;20446;-77
2021/08/14 12:09:51;;;;;;;8.03;7.13;;;30.60;29.40;;;;;;5113440;28;20443;-78
2021/08/14 12:12:19;;;;;;;12.13;6.40;;;30.60;30.00;;;;;;5111672;28;20490;-78
2021/08/14 12:14:46;;;;;;;8.63;7.50;;;31.10;28.60;;;;;;5114046;28;20495;-76
2021/08/14 12:17:13;;;;;;;9.53;7.40;;;31.30;27.70;;;;;;5117322;28;20450;-76
2021/08/14 12:19:48;;;;;;;6.90;6.40;;;31.40;27.80;;;;;;5117043;28;20430;-76
2021/08/14 12:22:16;;;;;;;7.60;6.97;;;31.40;27.80;;;;;;5103046;28;20541;-78
2021/08/14 12:24:45;;;;;;;8.50;6.67;;;31.30;27.70;;;;;;5100426;28;20467;-78
2021/08/14 12:27:32;;;;;;;9.67;7.00;;;31.20;27.70;;;;;;5101604;28;20425;-79
2021/08/14 12:30:20;;;;;;;11.00;6.90;;;31.30;27.70;;;;;;5103561;28;20457;-78
2021/08/14 12:32:48;;;;;;;7.87;6.57;;;31.30;27.70;;;;;;5101589;28;20465;-78
2021/08/14 12:35:17;;;;;;;9.87;7.13;;;31.30;27.70;;;;;;5101442;28;20441;-79
2021/08/14 12:37:44;;;;;;;6.80;6.30;;;31.40;27.80;;;;;;5104662;28;20487;-79
2021/08/14 12:40:16;;;;;;;7.27;6.57;;;31.50;27.80;;;;;;5104867;28;20467;-78
2021/08/14 12:42:43;;;;;;;8.03;6.43;;;31.50;27.80;;;;;;5105222;28;20454;-78
2021/08/14 12:45:17;;;;;;;10.27;7.20;;;31.30;27.70;;;;;;5103786;28;20506;-79
2021/08/14 12:47:44;;;;;;;12.80;7.50;;;31.40;27.90;;;;;;5109501;28;20439;-78
2021/08/14 12:50:23;;;;;;;7.90;6.63;;;31.60;27.90;;;;;;5114103;28;20508;-79